sensor_id;sensor_type;location;lat;lon;timestamp;P1;durP1;ratioP1;P2;durP2;ratioP2
9438;SDS011;5176;42.622;25.386;2023-09-08T00:01:34;6.85;;;5.28;;
9438;SDS011;5176;42.622;25.386;2023-09-08T00:04:03;6.22;;;5.63;;
9438;SDS011;5176;42.622;25.386;2023-09-08T00:06:31;7.13;;;5.95;;
9438;SDS011;5176;42.622;25.386;2023-09-08T00:08:58;6.03;;;5.25;;
9438;SDS011;5176;42.622;25.386;2023-09-08T00:11:26;6.78;;;5.75;;
9438;SDS011;5176;42.622;25.386;2023-09-08T00:13:53;6.85;;;6.05;;
9438;SDS011;5176;42.622;25.386;2023-09-08T00:16:21;6.25;;;5.50;;
9438;SDS011;5176;42.622;25.386;2023-09-08T00:18:48;6.78;;;5.85;;
9438;SDS011;5176;42.622;25.386;2023-09-08T00:21:16;5.70;;;5.13;;
9438;SDS011;5176;42.622;25.386;2023-09-08T00:23:43;7.75;;;5.45;;
9438;SDS011;5176;42.622;25.386;2023-09-08T00:26:11;5.80;;;5.18;;
9438;SDS011;5176;42.622;25.386;2023-09-08T00:28:38;5.70;;;5.03;;
9438;SDS011;5176;42.622;25.386;2023-09-08T00:31:05;5.57;;;5.07;;
9438;SDS011;5176;42.622;25.386;2023-09-08T00:33:32;6.03;;;5.38;;
9438;SDS011;5176;42.622;25.386;2023-09-08T00:35:59;6.90;;;5.45;;
9438;SDS011;5176;42.622;25.386;2023-09-08T00:38:28;7.22;;;5.90;;
9438;SDS011;5176;42.622;25.386;2023-09-08T00:40:55;6.03;;;5.43;;
9438;SDS011;5176;42.622;25.386;2023-09-08T00:43:24;6.20;;;5.47;;
9438;SDS011;5176;42.622;25.386;2023-09-08T00:45:51;9.20;;;6.53;;
9438;SDS011;5176;42.622;25.386;2023-09-08T00:48:20;5.53;;;4.90;;
9438;SDS011;5176;42.622;25.386;2023-09-08T00:50:48;5.72;;;5.22;;
9438;SDS011;5176;42.622;25.386;2023-09-08T00:53:15;6.28;;;5.45;;
9438;SDS011;5176;42.622;25.386;2023-09-08T00:55:45;5.93;;;5.32;;
9438;SDS011;5176;42.622;25.386;2023-09-08T00:58:12;5.85;;;5.25;;
9438;SDS011;5176;42.622;25.386;2023-09-08T01:00:39;5.88;;;5.38;;
9438;SDS011;5176;42.622;25.386;2023-09-08T01:03:06;5.50;;;5.00;;
9438;SDS011;5176;42.622;25.386;2023-09-08T01:05:34;6.55;;;5.45;;
9438;SDS011;5176;42.622;25.386;2023-09-08T01:08:01;7.13;;;5.57;;
9438;SDS011;5176;42.622;25.386;2023-09-08T01:10:29;7.00;;;5.43;;
9438;SDS011;5176;42.622;25.386;2023-09-08T01:12:58;5.82;;;4.70;;
9438;SDS011;5176;42.622;25.386;2023-09-08T01:15:25;6.88;;;5.45;;
9438;SDS011;5176;42.622;25.386;2023-09-08T01:17:52;6.38;;;5.50;;
9438;SDS011;5176;42.622;25.386;2023-09-08T01:20:20;5.72;;;5.05;;
9438;SDS011;5176;42.622;25.386;2023-09-08T01:25:47;5.60;;;4.90;;
9438;SDS011;5176;42.622;25.386;2023-09-08T01:28:19;9.30;;;5.65;;
9438;SDS011;5176;42.622;25.386;2023-09-08T01:30:48;9.45;;;5.85;;
9438;SDS011;5176;42.622;25.386;2023-09-08T01:33:17;6.65;;;5.68;;
9438;SDS011;5176;42.622;25.386;2023-09-08T01:35:44;8.65;;;5.53;;
9438;SDS011;5176;42.622;25.386;2023-09-08T01:38:12;5.65;;;5.15;;
9438;SDS011;5176;42.622;25.386;2023-09-08T01:40:40;7.50;;;5.68;;
9438;SDS011;5176;42.622;25.386;2023-09-08T01:43:08;6.25;;;5.72;;
9438;SDS011;5176;42.622;25.386;2023-09-08T01:45:35;6.28;;;5.68;;
9438;SDS011;5176;42.622;25.386;2023-09-08T01:48:03;5.45;;;4.90;;
9438;SDS011;5176;42.622;25.386;2023-09-08T01:50:30;6.57;;;5.22;;
9438;SDS011;5176;42.622;25.386;2023-09-08T01:52:57;5.88;;;5.38;;
9438;SDS011;5176;42.622;25.386;2023-09-08T01:55:25;5.25;;;4.75;;
9438;SDS011;5176;42.622;25.386;2023-09-08T01:57:52;5.63;;;5.03;;
9438;SDS011;5176;42.622;25.386;2023-09-08T02:00:21;7.40;;;5.35;;
9438;SDS011;5176;42.622;25.386;2023-09-08T02:02:48;6.10;;;5.50;;
9438;SDS011;5176;42.622;25.386;2023-09-08T02:05:15;6.43;;;5.00;;
9438;SDS011;5176;42.622;25.386;2023-09-08T02:07:42;6.82;;;5.10;;
9438;SDS011;5176;42.622;25.386;2023-09-08T02:10:10;5.47;;;4.85;;
9438;SDS011;5176;42.622;25.386;2023-09-08T02:12:37;7.28;;;4.95;;
9438;SDS011;5176;42.622;25.386;2023-09-08T02:15:05;5.80;;;5.20;;
9438;SDS011;5176;42.622;25.386;2023-09-08T02:17:35;6.32;;;5.07;;
9438;SDS011;5176;42.622;25.386;2023-09-08T02:20:02;5.90;;;5.30;;
9438;SDS011;5176;42.622;25.386;2023-09-08T02:22:30;6.22;;;5.13;;
9438;SDS011;5176;42.622;25.386;2023-09-08T02:24:58;6.95;;;4.80;;
9438;SDS011;5176;42.622;25.386;2023-09-08T02:27:25;6.93;;;5.95;;
9438;SDS011;5176;42.622;25.386;2023-09-08T02:29:53;7.57;;;5.30;;
9438;SDS011;5176;42.622;25.386;2023-09-08T02:32:20;5.32;;;4.82;;
9438;SDS011;5176;42.622;25.386;2023-09-08T02:34:49;6.20;;;5.47;;
9438;SDS011;5176;42.622;25.386;2023-09-08T02:37:16;7.57;;;5.10;;
9438;SDS011;5176;42.622;25.386;2023-09-08T02:39:44;5.22;;;4.72;;
9438;SDS011;5176;42.622;25.386;2023-09-08T02:42:11;5.93;;;4.75;;
9438;SDS011;5176;42.622;25.386;2023-09-08T02:44:38;9.00;;;5.28;;
9438;SDS011;5176;42.622;25.386;2023-09-08T02:47:05;6.25;;;4.68;;
9438;SDS011;5176;42.622;25.386;2023-09-08T02:49:33;5.15;;;4.72;;
9438;SDS011;5176;42.622;25.386;2023-09-08T02:52:02;6.32;;;4.70;;
9438;SDS011;5176;42.622;25.386;2023-09-08T02:54:29;7.07;;;5.00;;
9438;SDS011;5176;42.622;25.386;2023-09-08T02:56:56;6.18;;;5.57;;
9438;SDS011;5176;42.622;25.386;2023-09-08T02:59:24;5.15;;;4.65;;
9438;SDS011;5176;42.622;25.386;2023-09-08T03:01:51;7.63;;;5.05;;
9438;SDS011;5176;42.622;25.386;2023-09-08T03:04:18;6.25;;;5.28;;
9438;SDS011;5176;42.622;25.386;2023-09-08T03:06:45;6.70;;;5.32;;
9438;SDS011;5176;42.622;25.386;2023-09-08T03:09:14;7.70;;;5.25;;
9438;SDS011;5176;42.622;25.386;2023-09-08T03:11:41;6.32;;;5.28;;
9438;SDS011;5176;42.622;25.386;2023-09-08T03:14:08;7.15;;;4.95;;
9438;SDS011;5176;42.622;25.386;2023-09-08T03:16:35;5.78;;;5.10;;
9438;SDS011;5176;42.622;25.386;2023-09-08T03:19:03;7.85;;;5.15;;
9438;SDS011;5176;42.622;25.386;2023-09-08T03:21:30;8.48;;;5.60;;
9438;SDS011;5176;42.622;25.386;2023-09-08T03:23:58;7.32;;;5.35;;
9438;SDS011;5176;42.622;25.386;2023-09-08T03:26:26;8.55;;;5.80;;
9438;SDS011;5176;42.622;25.386;2023-09-08T03:28:53;5.88;;;5.28;;
9438;SDS011;5176;42.622;25.386;2023-09-08T03:31:20;7.68;;;5.78;;
9438;SDS011;5176;42.622;25.386;2023-09-08T03:33:48;7.07;;;5.55;;
9438;SDS011;5176;42.622;25.386;2023-09-08T03:36:15;7.60;;;5.78;;
9438;SDS011;5176;42.622;25.386;2023-09-08T03:38:43;7.38;;;5.80;;
9438;SDS011;5176;42.622;25.386;2023-09-08T03:41:10;6.20;;;5.15;;
9438;SDS011;5176;42.622;25.386;2023-09-08T03:43:39;6.53;;;5.07;;
9438;SDS011;5176;42.622;25.386;2023-09-08T03:46:06;9.70;;;5.90;;
9438;SDS011;5176;42.622;25.386;2023-09-08T03:48:33;10.05;;;6.25;;
9438;SDS011;5176;42.622;25.386;2023-09-08T03:51:00;7.28;;;5.13;;
9438;SDS011;5176;42.622;25.386;2023-09-08T03:53:28;8.00;;;5.50;;
9438;SDS011;5176;42.622;25.386;2023-09-08T03:55:55;8.50;;;5.53;;
9438;SDS011;5176;42.622;25.386;2023-09-08T03:58:22;7.85;;;5.85;;
9438;SDS011;5176;42.622;25.386;2023-09-08T04:00:51;8.27;;;4.78;;
9438;SDS011;5176;42.622;25.386;2023-09-08T04:03:18;6.35;;;5.07;;
9438;SDS011;5176;42.622;25.386;2023-09-08T04:05:45;5.88;;;4.95;;
9438;SDS011;5176;42.622;25.386;2023-09-08T04:08:12;6.38;;;4.93;;
9438;SDS011;5176;42.622;25.386;2023-09-08T04:10:40;7.45;;;5.45;;
9438;SDS011;5176;42.622;25.386;2023-09-08T04:13:07;5.63;;;4.80;;
9438;SDS011;5176;42.622;25.386;2023-09-08T04:15:34;6.53;;;4.65;;
9438;SDS011;5176;42.622;25.386;2023-09-08T04:18:03;6.20;;;5.15;;
9438;SDS011;5176;42.622;25.386;2023-09-08T04:20:30;7.50;;;4.38;;
9438;SDS011;5176;42.622;25.386;2023-09-08T04:22:58;5.60;;;4.28;;
9438;SDS011;5176;42.622;25.386;2023-09-08T04:25:25;7.80;;;4.40;;
9438;SDS011;5176;42.622;25.386;2023-09-08T04:27:52;8.13;;;4.25;;
9438;SDS011;5176;42.622;25.386;2023-09-08T04:30:19;7.00;;;4.40;;
9438;SDS011;5176;42.622;25.386;2023-09-08T04:32:47;5.40;;;4.53;;
9438;SDS011;5176;42.622;25.386;2023-09-08T04:35:15;5.50;;;4.00;;
9438;SDS011;5176;42.622;25.386;2023-09-08T04:37:43;4.90;;;4.13;;
9438;SDS011;5176;42.622;25.386;2023-09-08T04:40:10;5.00;;;4.50;;
9438;SDS011;5176;42.622;25.386;2023-09-08T04:42:37;4.60;;;4.20;;
9438;SDS011;5176;42.622;25.386;2023-09-08T04:45:05;7.97;;;4.65;;
9438;SDS011;5176;42.622;25.386;2023-09-08T04:47:33;6.65;;;4.50;;
9438;SDS011;5176;42.622;25.386;2023-09-08T04:50:00;8.18;;;4.38;;
9438;SDS011;5176;42.622;25.386;2023-09-08T04:52:30;4.97;;;4.55;;
9438;SDS011;5176;42.622;25.386;2023-09-08T04:54:57;6.40;;;4.28;;
9438;SDS011;5176;42.622;25.386;2023-09-08T04:57:25;7.53;;;4.88;;
9438;SDS011;5176;42.622;25.386;2023-09-08T04:59:52;6.80;;;5.60;;
9438;SDS011;5176;42.622;25.386;2023-09-08T05:02:19;8.25;;;5.10;;
9438;SDS011;5176;42.622;25.386;2023-09-08T05:04:46;5.38;;;4.43;;
9438;SDS011;5176;42.622;25.386;2023-09-08T05:07:14;7.80;;;5.43;;
9438;SDS011;5176;42.622;25.386;2023-09-08T05:09:43;10.43;;;5.65;;
9438;SDS011;5176;42.622;25.386;2023-09-08T05:12:10;6.78;;;5.22;;
9438;SDS011;5176;42.622;25.386;2023-09-08T05:14:38;10.15;;;4.78;;
9438;SDS011;5176;42.622;25.386;2023-09-08T05:17:06;7.88;;;5.55;;
9438;SDS011;5176;42.622;25.386;2023-09-08T05:19:33;8.30;;;5.50;;
9438;SDS011;5176;42.622;25.386;2023-09-08T05:22:01;6.60;;;5.00;;
9438;SDS011;5176;42.622;25.386;2023-09-08T05:24:28;5.80;;;4.22;;
9438;SDS011;5176;42.622;25.386;2023-09-08T05:26:56;5.90;;;4.82;;
9438;SDS011;5176;42.622;25.386;2023-09-08T05:29:24;4.85;;;4.35;;
9438;SDS011;5176;42.622;25.386;2023-09-08T05:31:51;10.20;;;4.70;;
9438;SDS011;5176;42.622;25.386;2023-09-08T05:34:18;5.20;;;4.70;;
9438;SDS011;5176;42.622;25.386;2023-09-08T05:36:45;4.95;;;4.20;;
9438;SDS011;5176;42.622;25.386;2023-09-08T05:39:13;5.05;;;4.55;;
9438;SDS011;5176;42.622;25.386;2023-09-08T05:41:43;4.53;;;3.90;;
9438;SDS011;5176;42.622;25.386;2023-09-08T05:44:11;6.70;;;4.90;;
9438;SDS011;5176;42.622;25.386;2023-09-08T05:46:38;4.85;;;4.35;;
9438;SDS011;5176;42.622;25.386;2023-09-08T05:49:06;4.28;;;3.97;;
9438;SDS011;5176;42.622;25.386;2023-09-08T05:51:33;7.05;;;4.25;;
9438;SDS011;5176;42.622;25.386;2023-09-08T05:54:01;4.10;;;3.70;;
9438;SDS011;5176;42.622;25.386;2023-09-08T05:56:29;11.45;;;4.10;;
9438;SDS011;5176;42.622;25.386;2023-09-08T05:58:57;4.47;;;4.07;;
9438;SDS011;5176;42.622;25.386;2023-09-08T06:01:28;3.88;;;3.58;;
9438;SDS011;5176;42.622;25.386;2023-09-08T06:03:56;4.13;;;3.83;;
9438;SDS011;5176;42.622;25.386;2023-09-08T06:06:23;4.82;;;4.20;;
9438;SDS011;5176;42.622;25.386;2023-09-08T06:08:50;4.40;;;4.00;;
9438;SDS011;5176;42.622;25.386;2023-09-08T06:11:18;6.68;;;4.18;;
9438;SDS011;5176;42.622;25.386;2023-09-08T06:13:45;6.60;;;3.63;;
9438;SDS011;5176;42.622;25.386;2023-09-08T06:16:13;4.10;;;3.70;;
9438;SDS011;5176;42.622;25.386;2023-09-08T06:18:42;3.88;;;3.58;;
9438;SDS011;5176;42.622;25.386;2023-09-08T06:21:10;5.07;;;3.55;;
9438;SDS011;5176;42.622;25.386;2023-09-08T06:23:37;4.80;;;3.85;;
9438;SDS011;5176;42.622;25.386;2023-09-08T06:26:05;5.57;;;4.35;;
9438;SDS011;5176;42.622;25.386;2023-09-08T06:28:32;5.70;;;3.97;;
9438;SDS011;5176;42.622;25.386;2023-09-08T06:30:59;5.20;;;4.10;;
9438;SDS011;5176;42.622;25.386;2023-09-08T06:33:27;4.35;;;3.95;;
9438;SDS011;5176;42.622;25.386;2023-09-08T06:35:55;4.22;;;3.83;;
9438;SDS011;5176;42.622;25.386;2023-09-08T06:38:23;9.38;;;4.68;;
9438;SDS011;5176;42.622;25.386;2023-09-08T06:40:50;5.13;;;4.03;;
9438;SDS011;5176;42.622;25.386;2023-09-08T06:43:18;4.30;;;3.90;;
9438;SDS011;5176;42.622;25.386;2023-09-08T06:45:46;5.90;;;4.15;;
9438;SDS011;5176;42.622;25.386;2023-09-08T06:48:15;4.50;;;4.05;;
9438;SDS011;5176;42.622;25.386;2023-09-08T06:50:42;6.07;;;4.15;;
9438;SDS011;5176;42.622;25.386;2023-09-08T06:53:11;4.75;;;4.25;;
9438;SDS011;5176;42.622;25.386;2023-09-08T06:55:39;7.30;;;5.63;;
9438;SDS011;5176;42.622;25.386;2023-09-08T06:58:06;6.57;;;5.30;;
9438;SDS011;5176;42.622;25.386;2023-09-08T07:00:33;6.15;;;4.80;;
9438;SDS011;5176;42.622;25.386;2023-09-08T07:03:00;7.20;;;5.30;;
9438;SDS011;5176;42.622;25.386;2023-09-08T07:05:28;5.57;;;5.05;;
9438;SDS011;5176;42.622;25.386;2023-09-08T07:07:55;5.50;;;5.00;;
9438;SDS011;5176;42.622;25.386;2023-09-08T07:10:24;7.50;;;4.97;;
9438;SDS011;5176;42.622;25.386;2023-09-08T07:12:51;5.35;;;4.85;;
9438;SDS011;5176;42.622;25.386;2023-09-08T07:15:18;5.28;;;4.88;;
9438;SDS011;5176;42.622;25.386;2023-09-08T07:17:46;5.22;;;4.72;;
9438;SDS011;5176;42.622;25.386;2023-09-08T07:20:13;5.05;;;4.65;;
9438;SDS011;5176;42.622;25.386;2023-09-08T07:22:41;7.35;;;5.07;;
9438;SDS011;5176;42.622;25.386;2023-09-08T07:25:08;7.43;;;4.70;;
9438;SDS011;5176;42.622;25.386;2023-09-08T07:27:37;4.80;;;4.40;;
9438;SDS011;5176;42.622;25.386;2023-09-08T07:30:05;5.78;;;5.03;;
9438;SDS011;5176;42.622;25.386;2023-09-08T07:32:33;6.72;;;5.10;;
9438;SDS011;5176;42.622;25.386;2023-09-08T07:35:00;5.53;;;4.95;;
9438;SDS011;5176;42.622;25.386;2023-09-08T07:37:28;7.45;;;5.15;;
9438;SDS011;5176;42.622;25.386;2023-09-08T07:39:56;5.15;;;4.75;;
9438;SDS011;5176;42.622;25.386;2023-09-08T07:42:23;6.80;;;4.85;;
9438;SDS011;5176;42.622;25.386;2023-09-08T07:44:52;7.13;;;4.75;;
9438;SDS011;5176;42.622;25.386;2023-09-08T07:47:19;8.43;;;5.20;;
9438;SDS011;5176;42.622;25.386;2023-09-08T07:49:47;6.00;;;5.18;;
9438;SDS011;5176;42.622;25.386;2023-09-08T07:52:14;5.40;;;4.90;;
9438;SDS011;5176;42.622;25.386;2023-09-08T07:54:42;5.78;;;5.03;;
9438;SDS011;5176;42.622;25.386;2023-09-08T07:57:09;6.40;;;4.75;;
9438;SDS011;5176;42.622;25.386;2023-09-08T07:59:36;6.20;;;4.70;;
9438;SDS011;5176;42.622;25.386;2023-09-08T08:02:05;7.90;;;5.38;;
9438;SDS011;5176;42.622;25.386;2023-09-08T08:04:32;5.50;;;5.10;;
9438;SDS011;5176;42.622;25.386;2023-09-08T08:07:00;7.57;;;5.50;;
9438;SDS011;5176;42.622;25.386;2023-09-08T08:09:28;5.32;;;4.90;;
9438;SDS011;5176;42.622;25.386;2023-09-08T08:11:55;5.57;;;4.53;;
9438;SDS011;5176;42.622;25.386;2023-09-08T08:14:22;4.57;;;4.18;;
9438;SDS011;5176;42.622;25.386;2023-09-08T08:16:50;5.70;;;4.53;;
9438;SDS011;5176;42.622;25.386;2023-09-08T08:19:18;5.38;;;4.93;;
9438;SDS011;5176;42.622;25.386;2023-09-08T08:21:45;4.40;;;4.10;;
9438;SDS011;5176;42.622;25.386;2023-09-08T08:24:13;5.15;;;4.65;;
9438;SDS011;5176;42.622;25.386;2023-09-08T08:26:40;5.45;;;4.70;;
9438;SDS011;5176;42.622;25.386;2023-09-08T08:29:08;5.28;;;4.78;;
9438;SDS011;5176;42.622;25.386;2023-09-08T08:31:35;5.65;;;4.90;;
9438;SDS011;5176;42.622;25.386;2023-09-08T08:34:02;4.90;;;4.45;;
9438;SDS011;5176;42.622;25.386;2023-09-08T08:36:31;5.05;;;4.55;;
9438;SDS011;5176;42.622;25.386;2023-09-08T08:38:59;5.18;;;4.68;;
9438;SDS011;5176;42.622;25.386;2023-09-08T08:41:26;4.07;;;3.70;;
9438;SDS011;5176;42.622;25.386;2023-09-08T08:43:55;6.70;;;4.82;;
9438;SDS011;5176;42.622;25.386;2023-09-08T08:46:22;5.30;;;4.57;;
9438;SDS011;5176;42.622;25.386;2023-09-08T08:48:53;6.43;;;4.80;;
9438;SDS011;5176;42.622;25.386;2023-09-08T08:51:21;4.93;;;4.30;;
9438;SDS011;5176;42.622;25.386;2023-09-08T08:53:51;7.97;;;4.85;;
9438;SDS011;5176;42.622;25.386;2023-09-08T08:56:19;5.32;;;4.82;;
9438;SDS011;5176;42.622;25.386;2023-09-08T08:58:47;4.93;;;4.35;;
9438;SDS011;5176;42.622;25.386;2023-09-08T09:01:15;4.65;;;4.25;;
9438;SDS011;5176;42.622;25.386;2023-09-08T09:03:44;5.53;;;4.32;;
9438;SDS011;5176;42.622;25.386;2023-09-08T09:06:15;7.18;;;4.80;;
9438;SDS011;5176;42.622;25.386;2023-09-08T09:08:43;4.40;;;4.00;;
9438;SDS011;5176;42.622;25.386;2023-09-08T09:11:13;4.40;;;4.03;;
9438;SDS011;5176;42.622;25.386;2023-09-08T09:13:41;6.10;;;4.65;;
9438;SDS011;5176;42.622;25.386;2023-09-08T09:16:08;6.30;;;4.50;;
9438;SDS011;5176;42.622;25.386;2023-09-08T09:18:41;6.28;;;4.43;;
9438;SDS011;5176;42.622;25.386;2023-09-08T09:21:21;5.53;;;4.47;;
9438;SDS011;5176;42.622;25.386;2023-09-08T09:23:48;5.63;;;4.10;;
9438;SDS011;5176;42.622;25.386;2023-09-08T09:26:24;5.10;;;4.38;;
9438;SDS011;5176;42.622;25.386;2023-09-08T09:28:52;7.20;;;4.45;;
9438;SDS011;5176;42.622;25.386;2023-09-08T09:31:23;4.80;;;4.40;;
9438;SDS011;5176;42.622;25.386;2023-09-08T09:34:03;5.20;;;4.30;;
9438;SDS011;5176;42.622;25.386;2023-09-08T09:36:31;5.00;;;4.60;;
9438;SDS011;5176;42.622;25.386;2023-09-08T09:38:59;5.18;;;4.32;;
9438;SDS011;5176;42.622;25.386;2023-09-08T09:41:29;5.60;;;4.28;;
9438;SDS011;5176;42.622;25.386;2023-09-08T09:43:56;4.68;;;4.28;;
9438;SDS011;5176;42.622;25.386;2023-09-08T09:46:27;5.38;;;4.72;;
9438;SDS011;5176;42.622;25.386;2023-09-08T09:48:55;5.10;;;4.70;;
9438;SDS011;5176;42.622;25.386;2023-09-08T09:51:23;5.18;;;4.72;;
9438;SDS011;5176;42.622;25.386;2023-09-08T09:53:50;10.27;;;4.63;;
9438;SDS011;5176;42.622;25.386;2023-09-08T09:56:19;4.88;;;4.47;;
9438;SDS011;5176;42.622;25.386;2023-09-08T09:58:50;7.40;;;5.10;;
9438;SDS011;5176;42.622;25.386;2023-09-08T10:01:20;5.35;;;4.88;;
9438;SDS011;5176;42.622;25.386;2023-09-08T10:03:52;4.70;;;4.30;;
9438;SDS011;5176;42.622;25.386;2023-09-08T10:06:21;6.55;;;4.90;;
9438;SDS011;5176;42.622;25.386;2023-09-08T10:08:49;9.70;;;5.78;;
9438;SDS011;5176;42.622;25.386;2023-09-08T10:11:19;5.03;;;4.53;;
9438;SDS011;5176;42.622;25.386;2023-09-08T10:13:50;5.03;;;4.57;;
9438;SDS011;5176;42.622;25.386;2023-09-08T10:16:20;5.18;;;4.68;;
9438;SDS011;5176;42.622;25.386;2023-09-08T10:18:48;6.03;;;4.32;;
9438;SDS011;5176;42.622;25.386;2023-09-08T10:21:18;4.70;;;4.30;;
9438;SDS011;5176;42.622;25.386;2023-09-08T10:23:49;5.82;;;4.60;;
9438;SDS011;5176;42.622;25.386;2023-09-08T10:26:25;4.53;;;4.18;;
9438;SDS011;5176;42.622;25.386;2023-09-08T10:28:55;4.28;;;3.88;;
9438;SDS011;5176;42.622;25.386;2023-09-08T10:31:24;4.47;;;4.07;;
9438;SDS011;5176;42.622;25.386;2023-09-08T10:33:53;4.60;;;4.20;;
9438;SDS011;5176;42.622;25.386;2023-09-08T10:36:22;5.53;;;4.78;;
9438;SDS011;5176;42.622;25.386;2023-09-08T10:38:49;5.30;;;4.80;;
9438;SDS011;5176;42.622;25.386;2023-09-08T10:41:27;5.38;;;4.60;;
9438;SDS011;5176;42.622;25.386;2023-09-08T10:44:06;4.97;;;4.53;;
9438;SDS011;5176;42.622;25.386;2023-09-08T10:46:34;4.38;;;3.97;;
9438;SDS011;5176;42.622;25.386;2023-09-08T10:49:04;4.78;;;4.38;;
9438;SDS011;5176;42.622;25.386;2023-09-08T10:51:32;4.57;;;4.18;;
9438;SDS011;5176;42.622;25.386;2023-09-08T10:54:00;7.55;;;4.53;;
9438;SDS011;5176;42.622;25.386;2023-09-08T10:56:29;5.68;;;4.60;;
9438;SDS011;5176;42.622;25.386;2023-09-08T10:59:15;4.90;;;4.50;;
9438;SDS011;5176;42.622;25.386;2023-09-08T11:01:43;4.65;;;3.97;;
9438;SDS011;5176;42.622;25.386;2023-09-08T11:04:10;4.65;;;4.30;;
9438;SDS011;5176;42.622;25.386;2023-09-08T11:06:44;4.93;;;4.30;;
9438;SDS011;5176;42.622;25.386;2023-09-08T11:09:11;7.78;;;4.75;;
9438;SDS011;5176;42.622;25.386;2023-09-08T11:11:39;4.78;;;4.38;;
9438;SDS011;5176;42.622;25.386;2023-09-08T11:14:06;6.53;;;4.72;;
9438;SDS011;5176;42.622;25.386;2023-09-08T11:16:35;5.97;;;4.40;;
9438;SDS011;5176;42.622;25.386;2023-09-08T11:19:02;4.40;;;3.97;;
9438;SDS011;5176;42.622;25.386;2023-09-08T11:21:30;4.95;;;4.45;;
9438;SDS011;5176;42.622;25.386;2023-09-08T11:24:00;4.70;;;4.25;;
9438;SDS011;5176;42.622;25.386;2023-09-08T11:26:32;4.70;;;4.30;;
9438;SDS011;5176;42.622;25.386;2023-09-08T11:29:00;4.32;;;4.03;;
9438;SDS011;5176;42.622;25.386;2023-09-08T11:31:28;4.00;;;3.70;;
9438;SDS011;5176;42.622;25.386;2023-09-08T11:33:57;4.38;;;3.97;;
9438;SDS011;5176;42.622;25.386;2023-09-08T11:36:25;5.28;;;4.05;;
9438;SDS011;5176;42.622;25.386;2023-09-08T11:38:53;4.85;;;4.45;;
9438;SDS011;5176;42.622;25.386;2023-09-08T11:41:21;4.50;;;4.10;;
9438;SDS011;5176;42.622;25.386;2023-09-08T11:43:49;4.68;;;4.15;;
9438;SDS011;5176;42.622;25.386;2023-09-08T11:46:17;7.05;;;4.18;;
9438;SDS011;5176;42.622;25.386;2023-09-08T11:48:44;4.28;;;3.97;;
9438;SDS011;5176;42.622;25.386;2023-09-08T11:51:14;4.15;;;3.80;;
9438;SDS011;5176;42.622;25.386;2023-09-08T11:53:41;4.35;;;3.95;;
9438;SDS011;5176;42.622;25.386;2023-09-08T11:56:09;3.88;;;3.58;;
9438;SDS011;5176;42.622;25.386;2023-09-08T11:58:37;3.92;;;3.60;;
9438;SDS011;5176;42.622;25.386;2023-09-08T12:01:05;4.95;;;4.53;;
9438;SDS011;5176;42.622;25.386;2023-09-08T12:03:32;4.28;;;3.88;;
9438;SDS011;5176;42.622;25.386;2023-09-08T12:06:00;4.03;;;3.67;;
9438;SDS011;5176;42.622;25.386;2023-09-08T12:08:31;4.60;;;3.90;;
9438;SDS011;5176;42.622;25.386;2023-09-08T12:10:59;4.00;;;3.60;;
9438;SDS011;5176;42.622;25.386;2023-09-08T12:13:26;3.88;;;3.58;;
9438;SDS011;5176;42.622;25.386;2023-09-08T12:15:54;4.72;;;4.32;;
9438;SDS011;5176;42.622;25.386;2023-09-08T12:18:36;4.82;;;3.85;;
9438;SDS011;5176;42.622;25.386;2023-09-08T12:21:04;4.43;;;4.13;;
9438;SDS011;5176;42.622;25.386;2023-09-08T12:23:34;4.20;;;3.80;;
9438;SDS011;5176;42.622;25.386;2023-09-08T12:26:14;4.75;;;4.00;;
9438;SDS011;5176;42.622;25.386;2023-09-08T12:28:41;4.90;;;4.10;;
9438;SDS011;5176;42.622;25.386;2023-09-08T12:31:09;4.38;;;3.97;;
9438;SDS011;5176;42.622;25.386;2023-09-08T12:33:37;5.30;;;4.03;;
9438;SDS011;5176;42.622;25.386;2023-09-08T12:36:09;4.15;;;3.75;;
9438;SDS011;5176;42.622;25.386;2023-09-08T12:38:38;4.65;;;4.25;;
9438;SDS011;5176;42.622;25.386;2023-09-08T12:41:06;5.05;;;4.55;;
9438;SDS011;5176;42.622;25.386;2023-09-08T12:43:33;4.60;;;4.20;;
9438;SDS011;5176;42.622;25.386;2023-09-08T12:46:00;5.07;;;4.60;;
9438;SDS011;5176;42.622;25.386;2023-09-08T12:48:28;4.88;;;4.47;;
9438;SDS011;5176;42.622;25.386;2023-09-08T12:50:55;4.28;;;3.97;;
9438;SDS011;5176;42.622;25.386;2023-09-08T12:53:22;4.72;;;4.32;;
9438;SDS011;5176;42.622;25.386;2023-09-08T12:55:51;6.47;;;4.18;;
9438;SDS011;5176;42.622;25.386;2023-09-08T12:58:19;4.55;;;4.15;;
9438;SDS011;5176;42.622;25.386;2023-09-08T13:00:46;6.18;;;4.30;;
9438;SDS011;5176;42.622;25.386;2023-09-08T13:03:13;4.90;;;4.40;;
9438;SDS011;5176;42.622;25.386;2023-09-08T13:05:40;6.22;;;4.10;;
9438;SDS011;5176;42.622;25.386;2023-09-08T13:08:08;4.47;;;4.05;;
9438;SDS011;5176;42.622;25.386;2023-09-08T13:10:36;4.95;;;4.18;;
9438;SDS011;5176;42.622;25.386;2023-09-08T13:13:05;4.45;;;4.00;;
9438;SDS011;5176;42.622;25.386;2023-09-08T13:15:32;7.63;;;4.90;;
9438;SDS011;5176;42.622;25.386;2023-09-08T13:18:00;4.50;;;4.10;;
9438;SDS011;5176;42.622;25.386;2023-09-08T13:20:27;4.18;;;3.78;;
9438;SDS011;5176;42.622;25.386;2023-09-08T13:22:54;5.43;;;4.40;;
9438;SDS011;5176;42.622;25.386;2023-09-08T13:25:22;4.45;;;4.10;;
9438;SDS011;5176;42.622;25.386;2023-09-08T13:27:49;4.00;;;3.70;;
9438;SDS011;5176;42.622;25.386;2023-09-08T13:30:18;5.63;;;4.32;;
9438;SDS011;5176;42.622;25.386;2023-09-08T13:32:47;5.20;;;4.70;;
9438;SDS011;5176;42.622;25.386;2023-09-08T13:35:15;8.05;;;4.63;;
9438;SDS011;5176;42.622;25.386;2023-09-08T13:37:42;4.90;;;4.05;;
9438;SDS011;5176;42.622;25.386;2023-09-08T13:40:09;4.30;;;3.90;;
9438;SDS011;5176;42.622;25.386;2023-09-08T13:42:38;6.65;;;5.00;;
9438;SDS011;5176;42.622;25.386;2023-09-08T13:45:05;4.30;;;3.90;;
9438;SDS011;5176;42.622;25.386;2023-09-08T13:47:34;5.20;;;3.95;;
9438;SDS011;5176;42.622;25.386;2023-09-08T13:50:03;5.78;;;4.30;;
9438;SDS011;5176;42.622;25.386;2023-09-08T13:52:31;5.00;;;4.25;;
9438;SDS011;5176;42.622;25.386;2023-09-08T13:54:59;5.45;;;4.13;;
9438;SDS011;5176;42.622;25.386;2023-09-08T13:57:26;4.45;;;4.05;;
9438;SDS011;5176;42.622;25.386;2023-09-08T13:59:53;4.82;;;4.43;;
9438;SDS011;5176;42.622;25.386;2023-09-08T14:02:21;4.60;;;4.20;;
9438;SDS011;5176;42.622;25.386;2023-09-08T14:04:49;4.80;;;4.40;;
9438;SDS011;5176;42.622;25.386;2023-09-08T14:07:17;4.70;;;4.30;;
9438;SDS011;5176;42.622;25.386;2023-09-08T14:09:44;4.53;;;4.13;;
9438;SDS011;5176;42.622;25.386;2023-09-08T14:12:11;5.00;;;4.53;;
9438;SDS011;5176;42.622;25.386;2023-09-08T14:14:39;4.63;;;4.22;;
9438;SDS011;5176;42.622;25.386;2023-09-08T14:17:06;3.95;;;3.65;;
9438;SDS011;5176;42.622;25.386;2023-09-08T14:19:34;5.65;;;4.72;;
9438;SDS011;5176;42.622;25.386;2023-09-08T14:22:03;4.22;;;3.83;;
9438;SDS011;5176;42.622;25.386;2023-09-08T14:24:30;5.28;;;3.90;;
9438;SDS011;5176;42.622;25.386;2023-09-08T14:26:58;3.95;;;3.65;;
9438;SDS011;5176;42.622;25.386;2023-09-08T14:29:25;4.53;;;4.13;;
9438;SDS011;5176;42.622;25.386;2023-09-08T14:31:52;4.47;;;4.07;;
9438;SDS011;5176;42.622;25.386;2023-09-08T14:34:20;5.47;;;4.00;;
9438;SDS011;5176;42.622;25.386;2023-09-08T14:36:48;4.10;;;3.80;;
9438;SDS011;5176;42.622;25.386;2023-09-08T14:39:16;5.82;;;4.22;;
9438;SDS011;5176;42.622;25.386;2023-09-08T14:41:44;5.18;;;4.68;;
9438;SDS011;5176;42.622;25.386;2023-09-08T14:44:11;5.50;;;4.72;;
9438;SDS011;5176;42.622;25.386;2023-09-08T14:46:39;4.93;;;4.53;;
9438;SDS011;5176;42.622;25.386;2023-09-08T14:49:06;6.20;;;5.05;;
9438;SDS011;5176;42.622;25.386;2023-09-08T14:51:33;6.05;;;4.72;;
9438;SDS011;5176;42.622;25.386;2023-09-08T14:54:00;5.63;;;4.82;;
9438;SDS011;5176;42.622;25.386;2023-09-08T14:56:29;4.88;;;4.35;;
9438;SDS011;5176;42.622;25.386;2023-09-08T14:58:56;4.65;;;4.25;;
9438;SDS011;5176;42.622;25.386;2023-09-08T15:01:25;7.05;;;5.10;;
9438;SDS011;5176;42.622;25.386;2023-09-08T15:03:52;5.10;;;4.70;;
9438;SDS011;5176;42.622;25.386;2023-09-08T15:06:21;6.32;;;4.65;;
9438;SDS011;5176;42.622;25.386;2023-09-08T15:08:48;6.22;;;4.53;;